Heber Springs, Arkansas
Current Conditions -  °F | °C
As of 4:15 PM on Tuesday 25 Nov 2014 (Local Time) from KCCA Reporting Station
Clear Clear  
Wind Chill: 52°   Ceiling: Unl
Heat Index: 52°   Visibility: 10mi
Dew Point: 19°   Wind: 3mph
Humidity: 28%   Direction: 20°NNE
Pressure: 30.16"   Gusts: NA
Location:  35.49°N, 92.04°W
Report Text: KCCA 252215Z AUTO 02003KT 10SM CLR 11/M07 A3016 RMK AO2
Loading
Personal Weather Stations






























Interactive Weather Map New forecast layout! Learn more

10-Day Weather Forecast

Advertisements
Track Severe Weather on mobile